sensor_id;sensor_type;location;lat;lon;timestamp;P1;durP1;ratioP1;P2;durP2;ratioP2
19049;SDS011;9657;45.940;12.840;2022-07-21T00:00:22;6.40;;;5.72;;
19049;SDS011;9657;45.940;12.840;2022-07-21T00:02:52;6.15;;;5.18;;
19049;SDS011;9657;45.940;12.840;2022-07-21T00:05:19;6.65;;;5.28;;
19049;SDS011;9657;45.940;12.840;2022-07-21T00:07:47;6.43;;;5.43;;
19049;SDS011;9657;45.940;12.840;2022-07-21T00:10:14;6.90;;;5.03;;
19049;SDS011;9657;45.940;12.840;2022-07-21T00:12:41;7.70;;;5.00;;
19049;SDS011;9657;45.940;12.840;2022-07-21T00:15:10;5.20;;;4.70;;
19049;SDS011;9657;45.940;12.840;2022-07-21T00:17:39;6.47;;;5.13;;
19049;SDS011;9657;45.940;12.840;2022-07-21T00:20:06;6.18;;;4.70;;
19049;SDS011;9657;45.940;12.840;2022-07-21T00:22:36;8.63;;;4.45;;
19049;SDS011;9657;45.940;12.840;2022-07-21T00:25:04;5.63;;;4.75;;
19049;SDS011;9657;45.940;12.840;2022-07-21T00:27:32;4.60;;;4.20;;
19049;SDS011;9657;45.940;12.840;2022-07-21T00:29:59;5.60;;;5.07;;
19049;SDS011;9657;45.940;12.840;2022-07-21T00:32:28;5.15;;;4.47;;
19049;SDS011;9657;45.940;12.840;2022-07-21T00:34:55;5.45;;;4.50;;
19049;SDS011;9657;45.940;12.840;2022-07-21T00:37:22;6.47;;;5.47;;
19049;SDS011;9657;45.940;12.840;2022-07-21T00:39:50;4.85;;;4.35;;
19049;SDS011;9657;45.940;12.840;2022-07-21T00:42:21;5.93;;;4.38;;
19049;SDS011;9657;45.940;12.840;2022-07-21T00:44:48;5.28;;;4.78;;
19049;SDS011;9657;45.940;12.840;2022-07-21T00:47:15;4.55;;;4.10;;
19049;SDS011;9657;45.940;12.840;2022-07-21T00:49:47;5.75;;;4.25;;
19049;SDS011;9657;45.940;12.840;2022-07-21T00:52:14;4.85;;;4.38;;
19049;SDS011;9657;45.940;12.840;2022-07-21T00:54:41;5.10;;;4.38;;
19049;SDS011;9657;45.940;12.840;2022-07-21T00:57:09;4.40;;;4.00;;
19049;SDS011;9657;45.940;12.840;2022-07-21T00:59:37;5.53;;;4.18;;
19049;SDS011;9657;45.940;12.840;2022-07-21T01:04:40;6.90;;;4.55;;
19049;SDS011;9657;45.940;12.840;2022-07-21T01:07:08;4.53;;;4.05;;
19049;SDS011;9657;45.940;12.840;2022-07-21T01:09:35;7.22;;;4.38;;
19049;SDS011;9657;45.940;12.840;2022-07-21T01:12:03;6.40;;;4.32;;
19049;SDS011;9657;45.940;12.840;2022-07-21T01:14:30;5.78;;;4.65;;
19049;SDS011;9657;45.940;12.840;2022-07-21T01:16:58;5.10;;;4.38;;
19049;SDS011;9657;45.940;12.840;2022-07-21T01:19:27;5.25;;;4.20;;
19049;SDS011;9657;45.940;12.840;2022-07-21T01:21:56;6.32;;;4.30;;
19049;SDS011;9657;45.940;12.840;2022-07-21T01:24:23;5.32;;;4.13;;
19049;SDS011;9657;45.940;12.840;2022-07-21T01:26:51;6.78;;;4.70;;
19049;SDS011;9657;45.940;12.840;2022-07-21T01:29:19;6.30;;;4.05;;
19049;SDS011;9657;45.940;12.840;2022-07-21T01:31:47;5.43;;;4.22;;
19049;SDS011;9657;45.940;12.840;2022-07-21T01:34:14;6.82;;;4.70;;
19049;SDS011;9657;45.940;12.840;2022-07-21T01:36:43;6.72;;;4.88;;
19049;SDS011;9657;45.940;12.840;2022-07-21T01:39:11;5.05;;;4.25;;
19049;SDS011;9657;45.940;12.840;2022-07-21T01:41:57;4.65;;;4.25;;
19049;SDS011;9657;45.940;12.840;2022-07-21T01:44:24;4.65;;;4.25;;
19049;SDS011;9657;45.940;12.840;2022-07-21T01:46:52;4.55;;;4.15;;
19049;SDS011;9657;45.940;12.840;2022-07-21T01:49:20;5.25;;;4.72;;
19049;SDS011;9657;45.940;12.840;2022-07-21T01:51:48;4.75;;;3.92;;
19049;SDS011;9657;45.940;12.840;2022-07-21T01:54:17;4.72;;;4.22;;
19049;SDS011;9657;45.940;12.840;2022-07-21T01:56:44;6.07;;;4.20;;
19049;SDS011;9657;45.940;12.840;2022-07-21T01:59:11;5.30;;;4.35;;
19049;SDS011;9657;45.940;12.840;2022-07-21T02:01:38;6.00;;;4.72;;
19049;SDS011;9657;45.940;12.840;2022-07-21T02:04:05;5.10;;;4.63;;
19049;SDS011;9657;45.940;12.840;2022-07-21T02:06:32;5.65;;;4.43;;
19049;SDS011;9657;45.940;12.840;2022-07-21T02:09:00;5.35;;;4.68;;
19049;SDS011;9657;45.940;12.840;2022-07-21T02:11:28;5.38;;;4.13;;
19049;SDS011;9657;45.940;12.840;2022-07-21T02:13:56;5.65;;;4.45;;
19049;SDS011;9657;45.940;12.840;2022-07-21T02:16:23;4.55;;;4.10;;
19049;SDS011;9657;45.940;12.840;2022-07-21T02:18:50;5.25;;;4.10;;
19049;SDS011;9657;45.940;12.840;2022-07-21T02:21:17;5.15;;;3.40;;
19049;SDS011;9657;45.940;12.840;2022-07-21T02:23:44;4.22;;;3.83;;
19049;SDS011;9657;45.940;12.840;2022-07-21T02:26:11;4.68;;;4.18;;
19049;SDS011;9657;45.940;12.840;2022-07-21T02:28:40;4.47;;;4.05;;
19049;SDS011;9657;45.940;12.840;2022-07-21T02:31:07;5.45;;;3.92;;
19049;SDS011;9657;45.940;12.840;2022-07-21T02:33:34;5.55;;;4.18;;
19049;SDS011;9657;45.940;12.840;2022-07-21T02:36:02;7.50;;;4.40;;
19049;SDS011;9657;45.940;12.840;2022-07-21T02:38:29;4.65;;;4.13;;
19049;SDS011;9657;45.940;12.840;2022-07-21T02:40:56;4.28;;;3.78;;
19049;SDS011;9657;45.940;12.840;2022-07-21T02:43:23;4.97;;;4.18;;
19049;SDS011;9657;45.940;12.840;2022-07-21T02:45:52;4.72;;;4.10;;
19049;SDS011;9657;45.940;12.840;2022-07-21T02:48:19;4.57;;;4.10;;
19049;SDS011;9657;45.940;12.840;2022-07-21T02:50:46;7.45;;;4.35;;
19049;SDS011;9657;45.940;12.840;2022-07-21T02:53:14;4.18;;;3.75;;
19049;SDS011;9657;45.940;12.840;2022-07-21T02:55:43;4.55;;;3.95;;
19049;SDS011;9657;45.940;12.840;2022-07-21T02:58:10;4.57;;;4.10;;
19049;SDS011;9657;45.940;12.840;2022-07-21T03:00:40;4.32;;;3.92;;
19049;SDS011;9657;45.940;12.840;2022-07-21T03:03:11;5.22;;;4.35;;
19049;SDS011;9657;45.940;12.840;2022-07-21T03:05:38;4.78;;;4.18;;
19049;SDS011;9657;45.940;12.840;2022-07-21T03:08:06;5.22;;;4.32;;
19049;SDS011;9657;45.940;12.840;2022-07-21T03:10:34;5.70;;;4.38;;
19049;SDS011;9657;45.940;12.840;2022-07-21T03:13:02;4.63;;;4.13;;
19049;SDS011;9657;45.940;12.840;2022-07-21T03:15:30;4.90;;;4.45;;
19049;SDS011;9657;45.940;12.840;2022-07-21T03:17:57;6.35;;;4.88;;
19049;SDS011;9657;45.940;12.840;2022-07-21T03:20:27;5.65;;;4.10;;
19049;SDS011;9657;45.940;12.840;2022-07-21T03:22:56;4.82;;;4.25;;
19049;SDS011;9657;45.940;12.840;2022-07-21T03:25:24;5.82;;;4.78;;
19049;SDS011;9657;45.940;12.840;2022-07-21T03:27:51;5.57;;;4.80;;
19049;SDS011;9657;45.940;12.840;2022-07-21T03:30:18;4.78;;;4.22;;
19049;SDS011;9657;45.940;12.840;2022-07-21T03:32:47;6.80;;;4.70;;
19049;SDS011;9657;45.940;12.840;2022-07-21T03:35:14;4.90;;;4.40;;
19049;SDS011;9657;45.940;12.840;2022-07-21T03:37:43;5.35;;;4.85;;
19049;SDS011;9657;45.940;12.840;2022-07-21T03:40:12;5.28;;;4.40;;
19049;SDS011;9657;45.940;12.840;2022-07-21T03:42:40;4.55;;;4.15;;
19049;SDS011;9657;45.940;12.840;2022-07-21T03:45:08;5.20;;;4.70;;
19049;SDS011;9657;45.940;12.840;2022-07-21T03:47:36;4.88;;;4.47;;
19049;SDS011;9657;45.940;12.840;2022-07-21T03:50:05;5.10;;;4.57;;
19049;SDS011;9657;45.940;12.840;2022-07-21T03:52:33;4.90;;;4.40;;
19049;SDS011;9657;45.940;12.840;2022-07-21T03:55:01;5.78;;;4.90;;
19049;SDS011;9657;45.940;12.840;2022-07-21T03:57:35;6.80;;;4.88;;
19049;SDS011;9657;45.940;12.840;2022-07-21T04:00:05;4.78;;;4.38;;
19049;SDS011;9657;45.940;12.840;2022-07-21T04:02:33;5.18;;;4.78;;
19049;SDS011;9657;45.940;12.840;2022-07-21T04:05:01;6.32;;;4.68;;
19049;SDS011;9657;45.940;12.840;2022-07-21T04:07:29;5.70;;;4.85;;
19049;SDS011;9657;45.940;12.840;2022-07-21T04:09:56;5.43;;;4.82;;
19049;SDS011;9657;45.940;12.840;2022-07-21T04:12:26;5.25;;;4.75;;
19049;SDS011;9657;45.940;12.840;2022-07-21T04:14:53;5.40;;;4.90;;
19049;SDS011;9657;45.940;12.840;2022-07-21T04:17:20;5.32;;;4.82;;
19049;SDS011;9657;45.940;12.840;2022-07-21T04:19:48;5.47;;;4.97;;
19049;SDS011;9657;45.940;12.840;2022-07-21T04:22:15;5.30;;;4.80;;
19049;SDS011;9657;45.940;12.840;2022-07-21T04:24:42;6.03;;;5.40;;
19049;SDS011;9657;45.940;12.840;2022-07-21T04:27:09;5.90;;;4.50;;
19049;SDS011;9657;45.940;12.840;2022-07-21T04:29:38;5.30;;;4.70;;
19049;SDS011;9657;45.940;12.840;2022-07-21T04:32:05;6.28;;;5.20;;
19049;SDS011;9657;45.940;12.840;2022-07-21T04:34:32;5.50;;;4.95;;
19049;SDS011;9657;45.940;12.840;2022-07-21T04:36:59;5.38;;;4.97;;
19049;SDS011;9657;45.940;12.840;2022-07-21T04:39:26;5.22;;;4.82;;
19049;SDS011;9657;45.940;12.840;2022-07-21T04:41:54;5.30;;;4.72;;
19049;SDS011;9657;45.940;12.840;2022-07-21T04:44:21;7.22;;;5.45;;
19049;SDS011;9657;45.940;12.840;2022-07-21T04:46:49;5.78;;;5.28;;
19049;SDS011;9657;45.940;12.840;2022-07-21T04:49:16;5.75;;;5.03;;
19049;SDS011;9657;45.940;12.840;2022-07-21T04:51:43;6.10;;;5.47;;
19049;SDS011;9657;45.940;12.840;2022-07-21T04:54:10;7.25;;;5.82;;
19049;SDS011;9657;45.940;12.840;2022-07-21T04:56:39;5.65;;;5.15;;
19049;SDS011;9657;45.940;12.840;2022-07-21T04:59:06;5.65;;;5.05;;
19049;SDS011;9657;45.940;12.840;2022-07-21T05:01:33;5.47;;;5.03;;
19049;SDS011;9657;45.940;12.840;2022-07-21T05:04:02;5.93;;;5.20;;
19049;SDS011;9657;45.940;12.840;2022-07-21T05:06:29;5.65;;;5.00;;
19049;SDS011;9657;45.940;12.840;2022-07-21T05:08:57;6.45;;;5.75;;
19049;SDS011;9657;45.940;12.840;2022-07-21T05:11:24;5.72;;;5.18;;
19049;SDS011;9657;45.940;12.840;2022-07-21T05:13:51;6.00;;;5.45;;
19049;SDS011;9657;45.940;12.840;2022-07-21T05:16:18;6.07;;;5.47;;
19049;SDS011;9657;45.940;12.840;2022-07-21T05:18:46;7.63;;;5.43;;
19049;SDS011;9657;45.940;12.840;2022-07-21T05:21:14;6.78;;;5.53;;
19049;SDS011;9657;45.940;12.840;2022-07-21T05:23:41;6.47;;;5.45;;
19049;SDS011;9657;45.940;12.840;2022-07-21T05:26:10;7.05;;;5.72;;
19049;SDS011;9657;45.940;12.840;2022-07-21T05:28:38;6.57;;;5.93;;
19049;SDS011;9657;45.940;12.840;2022-07-21T05:31:05;6.20;;;5.47;;
19049;SDS011;9657;45.940;12.840;2022-07-21T05:33:33;6.93;;;5.68;;
19049;SDS011;9657;45.940;12.840;2022-07-21T05:36:01;6.80;;;5.88;;
19049;SDS011;9657;45.940;12.840;2022-07-21T05:38:30;6.55;;;5.88;;
19049;SDS011;9657;45.940;12.840;2022-07-21T05:40:57;7.70;;;5.80;;
19049;SDS011;9657;45.940;12.840;2022-07-21T05:43:28;6.03;;;5.32;;
19049;SDS011;9657;45.940;12.840;2022-07-21T05:45:55;6.80;;;6.00;;
19049;SDS011;9657;45.940;12.840;2022-07-21T05:48:23;6.90;;;5.72;;
19049;SDS011;9657;45.940;12.840;2022-07-21T05:50:50;5.88;;;5.38;;
19049;SDS011;9657;45.940;12.840;2022-07-21T05:53:17;5.80;;;5.30;;
19049;SDS011;9657;45.940;12.840;2022-07-21T05:55:46;6.13;;;5.55;;
19049;SDS011;9657;45.940;12.840;2022-07-21T05:58:13;8.73;;;5.85;;
19049;SDS011;9657;45.940;12.840;2022-07-21T06:00:41;8.50;;;5.63;;
19049;SDS011;9657;45.940;12.840;2022-07-21T06:03:08;6.43;;;5.47;;
19049;SDS011;9657;45.940;12.840;2022-07-21T06:05:35;7.00;;;5.85;;
19049;SDS011;9657;45.940;12.840;2022-07-21T06:08:02;7.93;;;5.82;;
19049;SDS011;9657;45.940;12.840;2022-07-21T06:10:30;6.45;;;5.85;;
19049;SDS011;9657;45.940;12.840;2022-07-21T06:12:58;6.72;;;5.45;;
19049;SDS011;9657;45.940;12.840;2022-07-21T06:15:27;7.85;;;5.82;;
19049;SDS011;9657;45.940;12.840;2022-07-21T06:17:54;6.47;;;5.88;;
19049;SDS011;9657;45.940;12.840;2022-07-21T06:20:21;5.90;;;5.40;;
19049;SDS011;9657;45.940;12.840;2022-07-21T06:22:48;7.05;;;5.47;;
19049;SDS011;9657;45.940;12.840;2022-07-21T06:25:15;7.03;;;5.85;;
19049;SDS011;9657;45.940;12.840;2022-07-21T06:27:42;8.30;;;6.35;;
19049;SDS011;9657;45.940;12.840;2022-07-21T06:30:11;6.78;;;6.15;;
19049;SDS011;9657;45.940;12.840;2022-07-21T06:32:39;7.95;;;5.65;;
19049;SDS011;9657;45.940;12.840;2022-07-21T06:35:06;6.75;;;5.82;;
19049;SDS011;9657;45.940;12.840;2022-07-21T06:37:34;6.90;;;5.57;;
19049;SDS011;9657;45.940;12.840;2022-07-21T06:40:01;8.27;;;5.90;;
19049;SDS011;9657;45.940;12.840;2022-07-21T06:42:29;6.75;;;6.05;;
19049;SDS011;9657;45.940;12.840;2022-07-21T06:44:56;7.20;;;6.40;;
19049;SDS011;9657;45.940;12.840;2022-07-21T06:47:24;6.05;;;5.38;;
19049;SDS011;9657;45.940;12.840;2022-07-21T06:49:51;6.75;;;5.45;;
19049;SDS011;9657;45.940;12.840;2022-07-21T06:52:19;7.10;;;5.88;;
19049;SDS011;9657;45.940;12.840;2022-07-21T06:54:46;7.13;;;5.88;;
19049;SDS011;9657;45.940;12.840;2022-07-21T06:57:13;7.30;;;5.65;;
19049;SDS011;9657;45.940;12.840;2022-07-21T06:59:40;6.65;;;5.88;;
19049;SDS011;9657;45.940;12.840;2022-07-21T07:02:07;7.47;;;5.78;;
19049;SDS011;9657;45.940;12.840;2022-07-21T07:04:35;6.03;;;5.45;;
19049;SDS011;9657;45.940;12.840;2022-07-21T07:07:02;6.15;;;5.57;;
19049;SDS011;9657;45.940;12.840;2022-07-21T07:09:29;8.60;;;5.45;;
19049;SDS011;9657;45.940;12.840;2022-07-21T07:11:56;6.45;;;5.85;;
19049;SDS011;9657;45.940;12.840;2022-07-21T07:14:28;9.23;;;6.07;;
19049;SDS011;9657;45.940;12.840;2022-07-21T07:16:55;6.47;;;5.10;;
19049;SDS011;9657;45.940;12.840;2022-07-21T07:19:23;6.18;;;5.47;;
19049;SDS011;9657;45.940;12.840;2022-07-21T07:21:51;6.25;;;5.55;;
19049;SDS011;9657;45.940;12.840;2022-07-21T07:24:18;5.97;;;5.38;;
19049;SDS011;9657;45.940;12.840;2022-07-21T07:26:45;6.00;;;5.40;;
19049;SDS011;9657;45.940;12.840;2022-07-21T07:29:13;7.20;;;5.85;;
19049;SDS011;9657;45.940;12.840;2022-07-21T07:31:41;5.93;;;5.00;;
19049;SDS011;9657;45.940;12.840;2022-07-21T07:34:08;6.47;;;5.82;;
19049;SDS011;9657;45.940;12.840;2022-07-21T07:36:35;7.85;;;5.50;;
19049;SDS011;9657;45.940;12.840;2022-07-21T07:39:04;7.30;;;6.15;;
19049;SDS011;9657;45.940;12.840;2022-07-21T07:41:31;11.27;;;5.72;;
19049;SDS011;9657;45.940;12.840;2022-07-21T07:43:58;6.53;;;5.93;;
19049;SDS011;9657;45.940;12.840;2022-07-21T07:46:26;6.13;;;5.47;;
19049;SDS011;9657;45.940;12.840;2022-07-21T07:48:53;9.20;;;6.22;;
19049;SDS011;9657;45.940;12.840;2022-07-21T07:51:20;6.00;;;5.50;;
19049;SDS011;9657;45.940;12.840;2022-07-21T07:53:47;6.28;;;5.78;;
19049;SDS011;9657;45.940;12.840;2022-07-21T07:56:16;6.20;;;5.60;;
19049;SDS011;9657;45.940;12.840;2022-07-21T07:58:43;7.72;;;6.15;;
19049;SDS011;9657;45.940;12.840;2022-07-21T08:01:10;6.85;;;5.43;;
19049;SDS011;9657;45.940;12.840;2022-07-21T08:03:37;6.60;;;5.40;;
19049;SDS011;9657;45.940;12.840;2022-07-21T08:06:04;8.68;;;5.95;;
19049;SDS011;9657;45.940;12.840;2022-07-21T08:08:32;8.55;;;6.05;;
19049;SDS011;9657;45.940;12.840;2022-07-21T08:10:59;7.10;;;5.88;;
19049;SDS011;9657;45.940;12.840;2022-07-21T08:13:28;9.02;;;6.05;;
19049;SDS011;9657;45.940;12.840;2022-07-21T08:15:55;7.47;;;6.68;;
19049;SDS011;9657;45.940;12.840;2022-07-21T08:18:22;9.02;;;6.38;;
19049;SDS011;9657;45.940;12.840;2022-07-21T08:20:49;7.10;;;6.47;;
19049;SDS011;9657;45.940;12.840;2022-07-21T08:23:16;6.72;;;6.13;;
19049;SDS011;9657;45.940;12.840;2022-07-21T08:25:43;8.98;;;6.60;;
19049;SDS011;9657;45.940;12.840;2022-07-21T08:28:11;9.00;;;7.10;;
19049;SDS011;9657;45.940;12.840;2022-07-21T08:30:39;7.75;;;6.95;;
19049;SDS011;9657;45.940;12.840;2022-07-21T08:33:07;8.05;;;7.25;;
19049;SDS011;9657;45.940;12.840;2022-07-21T08:35:34;8.13;;;7.15;;
19049;SDS011;9657;45.940;12.840;2022-07-21T08:38:02;8.75;;;7.25;;
19049;SDS011;9657;45.940;12.840;2022-07-21T08:40:31;8.88;;;7.05;;
19049;SDS011;9657;45.940;12.840;2022-07-21T08:43:00;7.70;;;6.93;;
19049;SDS011;9657;45.940;12.840;2022-07-21T08:45:27;8.57;;;7.10;;
19049;SDS011;9657;45.940;12.840;2022-07-21T08:47:57;8.13;;;7.32;;
19049;SDS011;9657;45.940;12.840;2022-07-21T08:50:26;8.32;;;7.53;;
19049;SDS011;9657;45.940;12.840;2022-07-21T08:52:54;8.40;;;7.60;;
19049;SDS011;9657;45.940;12.840;2022-07-21T08:55:22;8.70;;;7.80;;
19049;SDS011;9657;45.940;12.840;2022-07-21T08:57:49;10.02;;;8.38;;
19049;SDS011;9657;45.940;12.840;2022-07-21T09:00:16;11.48;;;8.30;;
19049;SDS011;9657;45.940;12.840;2022-07-21T09:02:43;10.05;;;8.88;;
19049;SDS011;9657;45.940;12.840;2022-07-21T09:05:12;9.05;;;8.25;;
19049;SDS011;9657;45.940;12.840;2022-07-21T09:07:49;9.05;;;8.25;;
19049;SDS011;9657;45.940;12.840;2022-07-21T09:10:21;9.77;;;8.90;;
19049;SDS011;9657;45.940;12.840;2022-07-21T09:12:50;9.63;;;8.63;;
19049;SDS011;9657;45.940;12.840;2022-07-21T09:15:19;10.63;;;9.57;;
19049;SDS011;9657;45.940;12.840;2022-07-21T09:18:02;9.30;;;8.40;;
19049;SDS011;9657;45.940;12.840;2022-07-21T09:20:35;10.52;;;9.45;;
19049;SDS011;9657;45.940;12.840;2022-07-21T09:23:04;10.43;;;9.40;;
19049;SDS011;9657;45.940;12.840;2022-07-21T09:25:33;9.82;;;8.93;;
19049;SDS011;9657;45.940;12.840;2022-07-21T09:28:08;10.30;;;9.02;;
19049;SDS011;9657;45.940;12.840;2022-07-21T09:33:25;10.23;;;9.23;;
19049;SDS011;9657;45.940;12.840;2022-07-21T09:36:02;10.93;;;9.90;;
19049;SDS011;9657;45.940;12.840;2022-07-21T09:38:34;11.30;;;10.07;;
19049;SDS011;9657;45.940;12.840;2022-07-21T09:41:10;11.45;;;10.35;;
19049;SDS011;9657;45.940;12.840;2022-07-21T09:43:40;16.65;;;10.25;;
19049;SDS011;9657;45.940;12.840;2022-07-21T09:46:09;11.35;;;10.25;;
19049;SDS011;9657;45.940;12.840;2022-07-21T09:48:39;13.23;;;9.50;;
19049;SDS011;9657;45.940;12.840;2022-07-21T09:51:27;10.88;;;9.77;;
19049;SDS011;9657;45.940;12.840;2022-07-21T09:53:57;11.68;;;9.60;;
19049;SDS011;9657;45.940;12.840;2022-07-21T09:56:26;11.82;;;9.85;;
19049;SDS011;9657;45.940;12.840;2022-07-21T09:58:55;10.23;;;9.15;;
19049;SDS011;9657;45.940;12.840;2022-07-21T10:01:24;13.20;;;9.15;;
19049;SDS011;9657;45.940;12.840;2022-07-21T10:03:52;10.48;;;8.93;;
19049;SDS011;9657;45.940;12.840;2022-07-21T10:06:22;11.93;;;9.30;;
19049;SDS011;9657;45.940;12.840;2022-07-21T10:08:52;9.48;;;8.20;;
19049;SDS011;9657;45.940;12.840;2022-07-21T10:11:20;10.25;;;8.25;;
19049;SDS011;9657;45.940;12.840;2022-07-21T10:13:47;9.98;;;8.98;;
19049;SDS011;9657;45.940;12.840;2022-07-21T10:16:15;12.90;;;9.07;;
19049;SDS011;9657;45.940;12.840;2022-07-21T10:18:45;9.27;;;7.53;;
19049;SDS011;9657;45.940;12.840;2022-07-21T10:21:23;9.65;;;8.45;;
19049;SDS011;9657;45.940;12.840;2022-07-21T10:24:06;10.52;;;7.72;;
19049;SDS011;9657;45.940;12.840;2022-07-21T10:26:36;8.68;;;7.78;;
19049;SDS011;9657;45.940;12.840;2022-07-21T10:29:04;7.97;;;7.18;;
19049;SDS011;9657;45.940;12.840;2022-07-21T10:31:31;8.43;;;7.13;;
19049;SDS011;9657;45.940;12.840;2022-07-21T10:34:08;8.00;;;7.25;;
19049;SDS011;9657;45.940;12.840;2022-07-21T10:36:45;9.05;;;7.68;;
19049;SDS011;9657;45.940;12.840;2022-07-21T10:39:22;7.38;;;6.68;;
19049;SDS011;9657;45.940;12.840;2022-07-21T10:41:51;8.48;;;7.40;;
19049;SDS011;9657;45.940;12.840;2022-07-21T10:44:39;9.25;;;7.10;;
19049;SDS011;9657;45.940;12.840;2022-07-21T10:47:09;7.88;;;7.10;;
19049;SDS011;9657;45.940;12.840;2022-07-21T10:49:51;6.97;;;6.28;;
19049;SDS011;9657;45.940;12.840;2022-07-21T10:55:24;8.63;;;6.57;;
19049;SDS011;9657;45.940;12.840;2022-07-21T10:58:13;7.90;;;6.45;;
19049;SDS011;9657;45.940;12.840;2022-07-21T11:00:46;7.18;;;6.45;;
19049;SDS011;9657;45.940;12.840;2022-07-21T11:03:21;6.75;;;6.07;;
19049;SDS011;9657;45.940;12.840;2022-07-21T11:06:09;6.72;;;5.68;;
19049;SDS011;9657;45.940;12.840;2022-07-21T11:08:40;6.82;;;6.13;;
19049;SDS011;9657;45.940;12.840;2022-07-21T11:11:10;6.80;;;5.53;;
19049;SDS011;9657;45.940;12.840;2022-07-21T11:16:33;7.07;;;6.38;;
19049;SDS011;9657;45.940;12.840;2022-07-21T11:19:29;7.53;;;6.25;;
19049;SDS011;9657;45.940;12.840;2022-07-21T11:22:00;6.45;;;5.38;;
19049;SDS011;9657;45.940;12.840;2022-07-21T11:24:29;6.13;;;5.63;;
19049;SDS011;9657;45.940;12.840;2022-07-21T11:26:58;6.78;;;6.10;;
19049;SDS011;9657;45.940;12.840;2022-07-21T11:29:27;6.38;;;5.78;;
19049;SDS011;9657;45.940;12.840;2022-07-21T11:31:54;6.60;;;5.65;;
19049;SDS011;9657;45.940;12.840;2022-07-21T11:34:22;6.60;;;5.70;;
19049;SDS011;9657;45.940;12.840;2022-07-21T11:36:57;6.72;;;6.03;;
19049;SDS011;9657;45.940;12.840;2022-07-21T11:39:26;6.38;;;5.78;;
19049;SDS011;9657;45.940;12.840;2022-07-21T11:41:53;7.43;;;5.88;;
19049;SDS011;9657;45.940;12.840;2022-07-21T11:44:25;6.93;;;5.88;;
19049;SDS011;9657;45.940;12.840;2022-07-21T11:46:53;6.65;;;6.00;;
19049;SDS011;9657;45.940;12.840;2022-07-21T11:49:21;6.60;;;5.90;;
19049;SDS011;9657;45.940;12.840;2022-07-21T11:51:49;7.53;;;5.75;;
19049;SDS011;9657;45.940;12.840;2022-07-21T11:54:23;6.05;;;5.57;;
19049;SDS011;9657;45.940;12.840;2022-07-21T11:56:52;7.82;;;5.93;;
19049;SDS011;9657;45.940;12.840;2022-07-21T11:59:20;7.43;;;5.53;;
19049;SDS011;9657;45.940;12.840;2022-07-21T12:01:51;6.10;;;5.60;;
19049;SDS011;9657;45.940;12.840;2022-07-21T12:04:26;5.60;;;5.10;;
19049;SDS011;9657;45.940;12.840;2022-07-21T12:06:57;6.63;;;5.65;;
19049;SDS011;9657;45.940;12.840;2022-07-21T12:09:25;5.78;;;5.28;;
19049;SDS011;9657;45.940;12.840;2022-07-21T12:11:52;7.40;;;6.70;;
19049;SDS011;9657;45.940;12.840;2022-07-21T12:14:20;6.38;;;5.88;;
19049;SDS011;9657;45.940;12.840;2022-07-21T12:17:05;6.10;;;5.60;;
19049;SDS011;9657;45.940;12.840;2022-07-21T12:19:32;6.50;;;5.90;;
19049;SDS011;9657;45.940;12.840;2022-07-21T12:22:00;6.50;;;5.18;;
19049;SDS011;9657;45.940;12.840;2022-07-21T12:27:22;6.10;;;5.50;;
19049;SDS011;9657;45.940;12.840;2022-07-21T12:29:49;5.43;;;4.93;;
19049;SDS011;9657;45.940;12.840;2022-07-21T12:35:16;6.07;;;5.35;;
19049;SDS011;9657;45.940;12.840;2022-07-21T12:37:54;5.47;;;4.95;;
19049;SDS011;9657;45.940;12.840;2022-07-21T12:40:23;5.53;;;5.03;;
19049;SDS011;9657;45.940;12.840;2022-07-21T12:43:01;6.05;;;5.20;;
19049;SDS011;9657;45.940;12.840;2022-07-21T12:45:43;5.35;;;4.90;;
19049;SDS011;9657;45.940;12.840;2022-07-21T12:48:17;5.60;;;5.05;;
19049;SDS011;9657;45.940;12.840;2022-07-21T12:53:44;7.20;;;5.13;;
19049;SDS011;9657;45.940;12.840;2022-07-21T12:56:14;5.72;;;5.00;;
19049;SDS011;9657;45.940;12.840;2022-07-21T12:58:43;5.47;;;4.97;;
19049;SDS011;9657;45.940;12.840;2022-07-21T13:01:10;5.35;;;4.75;;
19049;SDS011;9657;45.940;12.840;2022-07-21T13:03:40;4.80;;;4.45;;
19049;SDS011;9657;45.940;12.840;2022-07-21T13:06:08;4.47;;;4.13;;
19049;SDS011;9657;45.940;12.840;2022-07-21T13:08:36;5.60;;;5.10;;
19049;SDS011;9657;45.940;12.840;2022-07-21T13:11:04;5.68;;;5.10;;
19049;SDS011;9657;45.940;12.840;2022-07-21T13:13:31;5.40;;;4.90;;
19049;SDS011;9657;45.940;12.840;2022-07-21T13:15:59;4.90;;;4.50;;
19049;SDS011;9657;45.940;12.840;2022-07-21T13:18:26;5.35;;;4.82;;
19049;SDS011;9657;45.940;12.840;2022-07-21T13:20:54;7.68;;;5.32;;
19049;SDS011;9657;45.940;12.840;2022-07-21T13:23:22;5.18;;;4.68;;
19049;SDS011;9657;45.940;12.840;2022-07-21T13:25:49;5.80;;;5.38;;
19049;SDS011;9657;45.940;12.840;2022-07-21T13:28:17;7.25;;;5.50;;
19049;SDS011;9657;45.940;12.840;2022-07-21T13:30:44;5.82;;;5.32;;
19049;SDS011;9657;45.940;12.840;2022-07-21T13:33:12;7.22;;;6.20;;
19049;SDS011;9657;45.940;12.840;2022-07-21T13:35:39;6.53;;;5.93;;
19049;SDS011;9657;45.940;12.840;2022-07-21T13:38:08;6.28;;;5.78;;
19049;SDS011;9657;45.940;12.840;2022-07-21T13:40:36;6.50;;;6.00;;
19049;SDS011;9657;45.940;12.840;2022-07-21T13:43:03;6.47;;;5.88;;
19049;SDS011;9657;45.940;12.840;2022-07-21T13:45:31;6.30;;;5.80;;
19049;SDS011;9657;45.940;12.840;2022-07-21T13:47:58;6.28;;;5.78;;
19049;SDS011;9657;45.940;12.840;2022-07-21T13:50:25;6.38;;;5.85;;
19049;SDS011;9657;45.940;12.840;2022-07-21T13:52:52;6.82;;;6.32;;
19049;SDS011;9657;45.940;12.840;2022-07-21T13:55:20;6.40;;;5.80;;
19049;SDS011;9657;45.940;12.840;2022-07-21T13:57:47;6.60;;;5.82;;
19049;SDS011;9657;45.940;12.840;2022-07-21T14:00:16;6.90;;;6.25;;
19049;SDS011;9657;45.940;12.840;2022-07-21T14:02:43;6.20;;;5.63;;
19049;SDS011;9657;45.940;12.840;2022-07-21T14:05:10;6.07;;;5.60;;
19049;SDS011;9657;45.940;12.840;2022-07-21T14:07:37;6.25;;;5.65;;
19049;SDS011;9657;45.940;12.840;2022-07-21T14:10:05;6.38;;;5.88;;
19049;SDS011;9657;45.940;12.840;2022-07-21T14:12:34;6.97;;;6.22;;
19049;SDS011;9657;45.940;12.840;2022-07-21T14:15:02;6.47;;;5.88;;
19049;SDS011;9657;45.940;12.840;2022-07-21T14:17:29;6.47;;;5.93;;
19049;SDS011;9657;45.940;12.840;2022-07-21T14:19:56;5.88;;;5.38;;
19049;SDS011;9657;45.940;12.840;2022-07-21T14:22:23;6.47;;;5.88;;
19049;SDS011;9657;45.940;12.840;2022-07-21T14:24:50;6.13;;;5.63;;
19049;SDS011;9657;45.940;12.840;2022-07-21T14:27:36;5.68;;;5.13;;
19049;SDS011;9657;45.940;12.840;2022-07-21T14:30:03;5.55;;;5.13;;
19049;SDS011;9657;45.940;12.840;2022-07-21T14:32:31;6.30;;;5.25;;
19049;SDS011;9657;45.940;12.840;2022-07-21T14:34:58;6.85;;;5.28;;
19049;SDS011;9657;45.940;12.840;2022-07-21T14:37:26;5.47;;;5.00;;
19049;SDS011;9657;45.940;12.840;2022-07-21T14:39:53;5.95;;;5.45;;
19049;SDS011;9657;45.940;12.840;2022-07-21T14:42:20;5.70;;;5.20;;
19049;SDS011;9657;45.940;12.840;2022-07-21T14:44:50;5.90;;;5.43;;
19049;SDS011;9657;45.940;12.840;2022-07-21T14:47:17;5.35;;;4.95;;
19049;SDS011;9657;45.940;12.840;2022-07-21T14:49:44;6.22;;;5.38;;
19049;SDS011;9657;45.940;12.840;2022-07-21T14:52:11;5.32;;;4.88;;
19049;SDS011;9657;45.940;12.840;2022-07-21T14:54:38;6.60;;;5.40;;
19049;SDS011;9657;45.940;12.840;2022-07-21T14:57:05;6.32;;;5.78;;
19049;SDS011;9657;45.940;12.840;2022-07-21T14:59:33;6.45;;;5.40;;
19049;SDS011;9657;45.940;12.840;2022-07-21T15:02:01;5.85;;;5.25;;
19049;SDS011;9657;45.940;12.840;2022-07-21T15:04:28;5.72;;;4.50;;
19049;SDS011;9657;45.940;12.840;2022-07-21T15:06:55;5.28;;;4.78;;
19049;SDS011;9657;45.940;12.840;2022-07-21T15:09:22;7.18;;;5.82;;
19049;SDS011;9657;45.940;12.840;2022-07-21T15:11:50;7.20;;;5.03;;
19049;SDS011;9657;45.940;12.840;2022-07-21T15:14:17;5.05;;;4.57;;